Time;durP1;ratioP1;P1;durP2;ratioP2;P2;SDS_P1;SDS_P2;PMS_P1;PMS_P2;Temp;Humidity;BMP_temperature;BMP_pressure;BME280_temperature;BME280_humidity;BME280_pressure;Samples;Min_cycle;Max_cycle;Signal;HPM_P1;HPM_P2
2022/02/06 00:00:20;;;;;;;5.20;3.25;;;5.60;99.90;;;;;;5029519;28;20068;-63
2022/02/06 00:02:49;;;;;;;8.95;3.20;;;5.60;99.90;;;;;;5033310;28;20041;-63
2022/02/06 00:05:15;;;;;;;6.78;3.67;;;5.60;99.90;;;;;;5040655;28;20056;-63
2022/02/06 00:07:41;;;;;;;4.95;2.97;;;5.60;99.90;;;;;;5052200;28;20481;-63
2022/02/06 00:10:09;;;;;;;7.38;3.83;;;5.60;99.90;;;;;;5052621;28;20391;-62
2022/02/06 00:12:35;;;;;;;6.82;3.30;;;5.60;99.90;;;;;;5051546;28;20523;-63
2022/02/06 00:15:02;;;;;;;9.98;3.15;;;5.60;99.90;;;;;;5033706;28;20033;-62
2022/02/06 00:17:31;;;;;;;6.88;3.05;;;5.60;99.90;;;;;;5032266;28;20064;-63
2022/02/06 00:19:59;;;;;;;6.32;3.25;;;5.60;99.90;;;;;;5043504;28;20531;-62
2022/02/06 00:22:39;;;;;;;9.02;3.67;;;5.60;99.90;;;;;;5044676;28;20443;-63
2022/02/06 00:30:53;;;;;;;5.13;3.10;;;5.60;99.90;;;;;;5041004;28;20044;-63
2022/02/06 00:38:13;;;;;;;5.22;3.42;;;5.50;99.90;;;;;;5041203;28;20094;-63
2022/02/06 00:43:20;;;;;;;5.32;3.22;;;5.50;99.90;;;;;;5040261;28;20038;-61
2022/02/06 00:45:46;;;;;;;6.57;3.50;;;5.50;99.90;;;;;;5041597;28;20045;-63
2022/02/06 00:48:12;;;;;;;8.00;3.08;;;5.50;99.90;;;;;;5027102;28;20037;-63
2022/02/06 00:50:43;;;;;;;5.43;2.85;;;5.50;99.90;;;;;;5045454;28;20083;-64
2022/02/06 00:53:15;;;;;;;10.73;3.60;;;5.50;99.90;;;;;;5040513;28;20456;-63
2022/02/06 00:55:41;;;;;;;8.07;3.33;;;5.50;99.90;;;;;;5035544;28;20065;-61
2022/02/06 00:58:07;;;;;;;10.07;3.28;;;5.50;99.90;;;;;;5027572;28;20441;-63
2022/02/06 01:00:32;;;;;;;10.63;3.78;;;5.60;99.90;;;;;;5035024;28;20045;-62
2022/02/06 01:02:58;;;;;;;6.88;3.28;;;5.50;99.90;;;;;;5051322;28;20063;-64
2022/02/06 01:05:24;;;;;;;7.72;3.25;;;5.50;99.90;;;;;;5052835;28;20404;-63
2022/02/06 01:07:51;;;;;;;11.48;3.45;;;5.60;99.90;;;;;;5051303;28;20381;-63
2022/02/06 01:10:17;;;;;;;8.15;3.08;;;5.50;99.90;;;;;;5031917;28;20041;-65
2022/02/06 01:12:53;;;;;;;7.43;3.53;;;5.60;99.90;;;;;;5031063;28;20094;-62
2022/02/06 01:15:23;;;;;;;6.68;3.38;;;5.50;99.90;;;;;;5041061;28;20037;-62
2022/02/06 01:18:01;;;;;;;8.15;3.22;;;5.50;99.90;;;;;;5052199;28;20033;-64
2022/02/06 01:20:37;;;;;;;8.30;4.07;;;5.60;99.90;;;;;;5051121;28;20120;-64
2022/02/06 01:23:11;;;;;;;8.23;4.13;;;5.60;99.90;;;;;;5036197;28;20508;-62
2022/02/06 01:25:49;;;;;;;8.23;3.15;;;5.60;99.90;;;;;;5050982;28;20108;-63
2022/02/06 01:28:21;;;;;;;8.30;3.60;;;5.60;99.90;;;;;;5051193;28;20047;-63
2022/02/06 01:31:44;;;;;;;7.57;3.40;;;5.60;99.90;;;;;;5032381;28;20524;-62
2022/02/06 01:33:41;;;;;;;8.90;3.20;;;5.60;99.90;;;;;;5029586;28;20049;-63
2022/02/06 01:36:35;;;;;;;9.05;3.30;;;5.70;99.90;;;;;;5034516;28;20029;-62
2022/02/06 01:39:12;;;;;;;8.52;3.83;;;5.70;99.90;;;;;;5047139;28;20064;-62
2022/02/06 01:41:42;;;;;;;9.68;3.63;;;5.70;99.90;;;;;;5052422;28;20114;-63
2022/02/06 01:44:18;;;;;;;8.75;3.58;;;5.70;99.90;;;;;;5034843;28;20232;-62
2022/02/06 02:03:07;;;;;;;6.38;3.47;;;5.80;99.90;;;;;;5043024;28;20485;-61
2022/02/06 02:05:55;;;;;;;8.07;3.00;;;5.90;99.90;;;;;;5052350;28;20411;-63
2022/02/06 02:08:52;;;;;;;7.35;3.63;;;5.90;99.90;;;;;;5048693;28;20033;-63
2022/02/06 02:24:57;;;;;;;5.95;3.03;;;6.00;99.90;;;;;;5031003;28;20038;-64
2022/02/06 02:32:58;;;;;;;6.15;3.47;;;6.00;99.90;;;;;;5041202;28;20082;-62
2022/02/06 02:48:24;;;;;;;5.97;3.20;;;6.20;99.90;;;;;;5031184;28;20045;-61
2022/02/06 02:50:56;;;;;;;7.65;4.00;;;6.20;99.90;;;;;;5054292;28;20025;-63
2022/02/06 02:54:26;;;;;;;9.23;3.60;;;6.20;99.90;;;;;;5033729;28;20051;-63
2022/02/06 03:01:55;;;;;;;9.10;4.10;;;6.20;99.90;;;;;;5052053;28;20064;-63
2022/02/06 03:04:20;;;;;;;7.68;3.15;;;6.20;99.90;;;;;;5033787;28;20449;-62
2022/02/06 03:06:46;;;;;;;7.13;3.03;;;6.30;99.90;;;;;;5037683;28;20086;-61
2022/02/06 03:09:11;;;;;;;7.13;3.83;;;6.30;99.90;;;;;;5053833;28;20457;-62
2022/02/06 03:11:38;;;;;;;11.23;3.35;;;6.30;99.90;;;;;;5034637;28;20541;-62
2022/02/06 03:16:43;;;;;;;7.65;3.13;;;6.30;99.90;;;;;;5036050;28;20052;-62
2022/02/06 03:19:17;;;;;;;6.70;3.13;;;6.30;99.90;;;;;;5053478;28;20040;-62
2022/02/06 03:21:44;;;;;;;11.20;3.65;;;6.30;99.90;;;;;;5037804;28;20025;-60
2022/02/06 03:24:36;;;;;;;5.57;3.25;;;6.30;99.90;;;;;;5054068;28;20037;-61
2022/02/06 03:26:56;;;;;;;5.53;3.10;;;6.30;99.90;;;;;;5040977;28;20053;-62
2022/02/06 03:29:23;;;;;;;5.53;2.90;;;6.30;99.90;;;;;;5053494;28;20049;-62
2022/02/06 03:31:50;;;;;;;5.70;2.83;;;6.40;99.90;;;;;;5033652;28;20033;-62
2022/02/06 03:34:17;;;;;;;7.45;3.10;;;6.40;99.90;;;;;;5032917;28;20041;-63
2022/02/06 03:36:43;;;;;;;6.82;3.20;;;6.40;99.90;;;;;;5049760;28;20505;-61
2022/02/06 03:39:12;;;;;;;5.82;2.47;;;6.40;99.90;;;;;;5054442;28;20025;-63
2022/02/06 03:42:08;;;;;;;5.15;2.63;;;6.40;99.90;;;;;;5037343;28;20365;-62
2022/02/06 03:44:35;;;;;;;7.45;2.85;;;6.50;99.90;;;;;;5034114;28;20386;-63
2022/02/06 03:47:15;;;;;;;6.75;2.72;;;6.50;99.90;;;;;;5036740;28;20055;-60
2022/02/06 03:49:59;;;;;;;12.77;3.15;;;6.50;99.90;;;;;;5054503;28;20025;-62
2022/02/06 03:52:37;;;;;;;7.05;3.20;;;6.50;99.90;;;;;;5037782;28;20068;-63
2022/02/06 03:55:03;;;;;;;6.07;2.67;;;6.50;99.90;;;;;;5034857;28;20123;-62
2022/02/06 03:57:29;;;;;;;5.63;3.05;;;6.50;99.90;;;;;;5034172;28;20524;-63
2022/02/06 03:59:56;;;;;;;6.13;3.22;;;6.50;99.90;;;;;;5033387;28;20045;-63
2022/02/06 04:02:22;;;;;;;5.57;2.63;;;6.50;99.90;;;;;;5052006;28;20047;-62
2022/02/06 04:04:47;;;;;;;6.20;2.72;;;6.50;99.90;;;;;;5035390;28;20037;-62
2022/02/06 04:07:13;;;;;;;4.63;2.70;;;6.50;99.90;;;;;;5033362;28;20144;-62
2022/02/06 04:09:46;;;;;;;4.90;2.90;;;6.50;99.90;;;;;;5032925;28;20083;-61
2022/02/06 04:12:15;;;;;;;4.95;2.55;;;6.60;99.90;;;;;;5033346;28;20128;-62
2022/02/06 04:14:52;;;;;;;5.57;2.65;;;6.60;99.90;;;;;;5032941;28;20056;-62
2022/02/06 04:17:23;;;;;;;4.05;2.50;;;6.60;99.90;;;;;;5048746;28;20068;-61
2022/02/06 04:19:51;;;;;;;5.60;2.85;;;6.60;99.90;;;;;;5052050;28;20437;-62
2022/02/06 04:22:17;;;;;;;6.68;2.50;;;6.60;99.90;;;;;;5034397;28;20033;-65
2022/02/06 04:24:43;;;;;;;4.78;3.05;;;6.60;99.90;;;;;;5053014;28;20025;-62
2022/02/06 04:27:09;;;;;;;3.80;2.40;;;6.50;99.90;;;;;;5052178;28;20037;-62
2022/02/06 04:29:35;;;;;;;5.15;2.60;;;6.50;99.90;;;;;;5035047;28;20037;-62
2022/02/06 04:32:02;;;;;;;6.72;2.53;;;6.50;99.90;;;;;;5050184;28;20041;-63
2022/02/06 04:34:29;;;;;;;7.53;2.90;;;6.50;99.90;;;;;;5051282;28;20036;-63
2022/02/06 04:37:07;;;;;;;5.35;2.67;;;6.50;99.90;;;;;;5053603;28;20048;-61
2022/02/06 04:45:35;;;;;;;6.27;2.80;;;6.50;99.90;;;;;;5032686;28;20109;-60
2022/02/06 04:48:15;;;;;;;4.53;2.47;;;6.50;99.90;;;;;;5034619;28;20068;-63
2022/02/06 04:51:21;;;;;;;5.13;2.60;;;6.50;99.90;;;;;;5038049;28;20033;-62
2022/02/06 05:18:07;;;;;;;3.53;2.63;;;6.60;99.90;;;;;;5033331;28;20041;-63
2022/02/06 05:31:04;;;;;;;4.82;2.60;;;6.60;99.90;;;;;;5032318;28;20038;-62
2022/02/06 05:33:30;;;;;;;4.88;2.45;;;6.60;99.90;;;;;;5016365;28;20033;-64
2022/02/06 05:35:55;;;;;;;5.53;2.47;;;6.60;99.90;;;;;;5049951;28;20040;-62
2022/02/06 05:38:21;;;;;;;5.38;2.45;;;6.60;99.90;;;;;;5037365;28;20049;-61
2022/02/06 05:40:47;;;;;;;3.55;2.75;;;6.60;99.90;;;;;;5039226;28;20446;-60
2022/02/06 05:43:13;;;;;;;5.00;2.35;;;6.60;99.90;;;;;;5052012;28;20052;-64
2022/02/06 05:45:38;;;;;;;5.57;2.60;;;6.60;99.90;;;;;;5044904;28;20493;-62
2022/02/06 05:48:07;;;;;;;5.25;2.58;;;6.60;99.90;;;;;;5047279;28;20033;-62
2022/02/06 05:50:33;;;;;;;7.43;2.90;;;6.60;99.90;;;;;;5037433;28;20029;-62
2022/02/06 05:52:59;;;;;;;6.20;2.58;;;6.60;99.90;;;;;;5050366;28;20047;-59
2022/02/06 05:55:24;;;;;;;5.22;2.83;;;6.60;99.90;;;;;;5047653;28;20030;-62
2022/02/06 05:57:50;;;;;;;6.05;3.10;;;6.60;99.90;;;;;;5048380;28;20040;-62
2022/02/06 06:00:16;;;;;;;5.38;2.70;;;6.60;99.90;;;;;;5005354;28;20063;-63
2022/02/06 06:02:42;;;;;;;5.22;2.65;;;6.60;99.90;;;;;;5032024;28;20058;-61
2022/02/06 06:05:08;;;;;;;9.23;2.58;;;6.60;99.90;;;;;;5044597;28;20573;-62
2022/02/06 06:07:34;;;;;;;7.03;3.15;;;6.70;99.90;;;;;;5054277;28;20048;-62
2022/02/06 06:10:00;;;;;;;5.10;2.83;;;6.70;99.90;;;;;;5046611;28;20033;-60
2022/02/06 06:12:25;;;;;;;10.10;3.42;;;6.70;99.90;;;;;;5018085;28;20041;-63
2022/02/06 06:14:51;;;;;;;5.60;3.42;;;6.70;99.90;;;;;;5042122;28;20078;-62
2022/02/06 06:17:17;;;;;;;5.18;3.22;;;6.70;99.90;;;;;;5038212;28;20041;-62
2022/02/06 06:19:48;;;;;;;7.03;2.80;;;6.80;99.90;;;;;;5049447;28;20409;-65
2022/02/06 06:22:17;;;;;;;8.63;3.63;;;6.80;99.90;;;;;;5020254;28;20044;-63
2022/02/06 06:24:45;;;;;;;7.47;3.15;;;6.80;99.90;;;;;;5055011;28;20511;-62
2022/02/06 06:27:11;;;;;;;5.47;2.80;;;6.80;99.90;;;;;;5054886;28;20037;-61
2022/02/06 06:29:37;;;;;;;5.35;2.97;;;6.70;99.90;;;;;;5034134;28;20192;-64
2022/02/06 06:32:09;;;;;;;7.25;2.88;;;6.80;99.90;;;;;;5019011;28;20580;-61
2022/02/06 06:34:37;;;;;;;6.10;2.83;;;6.70;99.90;;;;;;5053140;28;20029;-61
2022/02/06 06:37:03;;;;;;;6.30;3.10;;;6.80;99.90;;;;;;5038977;28;20056;-63
2022/02/06 06:39:40;;;;;;;8.68;3.10;;;6.80;99.90;;;;;;5054131;28;20411;-61
2022/02/06 06:42:08;;;;;;;6.68;2.85;;;6.80;99.90;;;;;;5055555;28;20033;-63
2022/02/06 06:44:34;;;;;;;5.43;3.03;;;6.80;99.90;;;;;;5053554;28;20493;-63
2022/02/06 06:47:00;;;;;;;5.13;3.45;;;6.90;99.90;;;;;;5055013;28;20041;-62
2022/02/06 06:49:26;;;;;;;6.07;3.00;;;6.80;99.90;;;;;;5042904;28;20037;-62
2022/02/06 06:51:55;;;;;;;12.52;3.45;;;6.80;99.90;;;;;;5035653;28;20037;-63
2022/02/06 06:54:22;;;;;;;7.18;3.85;;;6.80;99.90;;;;;;5043048;28;20029;-63
2022/02/06 06:59:46;;;;;;;6.60;3.55;;;6.80;99.90;;;;;;5036286;28;20033;-61
2022/02/06 07:04:52;;;;;;;6.95;3.92;;;6.90;99.90;;;;;;5054859;28;20025;-61
2022/02/06 07:07:18;;;;;;;7.75;3.42;;;6.90;99.90;;;;;;5052511;28;20033;-63
2022/02/06 07:09:44;;;;;;;9.40;3.03;;;6.90;99.90;;;;;;5043236;28;20489;-62
2022/02/06 07:12:13;;;;;;;4.00;2.80;;;6.90;99.90;;;;;;5049761;28;20043;-63
2022/02/06 07:14:40;;;;;;;6.25;3.35;;;6.90;99.90;;;;;;5054587;28;20061;-63
2022/02/06 07:17:05;;;;;;;5.45;2.92;;;7.00;99.90;;;;;;5053562;28;20032;-61
2022/02/06 07:19:31;;;;;;;8.63;3.17;;;7.00;99.90;;;;;;5052980;28;20445;-63
2022/02/06 07:21:57;;;;;;;5.18;2.90;;;7.00;99.90;;;;;;5053524;28;20040;-62
2022/02/06 07:24:26;;;;;;;3.97;2.30;;;7.00;99.90;;;;;;5033271;28;20053;-62
2022/02/06 07:26:56;;;;;;;4.53;2.70;;;7.10;99.90;;;;;;5051039;28;20120;-61
2022/02/06 07:29:23;;;;;;;4.65;2.78;;;7.00;99.90;;;;;;5053283;28;20191;-63
2022/02/06 07:31:50;;;;;;;5.13;2.67;;;7.10;99.90;;;;;;5039726;28;20116;-63
2022/02/06 07:34:15;;;;;;;3.92;2.55;;;7.10;99.90;;;;;;5033920;28;20048;-62
2022/02/06 07:36:41;;;;;;;6.47;2.50;;;7.10;99.90;;;;;;5033890;28;20034;-65
2022/02/06 07:39:07;;;;;;;6.13;2.33;;;7.10;99.90;;;;;;5042030;28;20036;-61
2022/02/06 07:41:32;;;;;;;6.03;2.70;;;7.10;99.90;;;;;;5054658;28;20021;-63
2022/02/06 07:43:58;;;;;;;8.65;2.55;;;7.10;99.90;;;;;;5037727;28;20373;-63
2022/02/06 07:46:30;;;;;;;2.85;2.35;;;7.20;99.90;;;;;;5049934;28;20071;-63
2022/02/06 07:49:00;;;;;;;4.13;2.10;;;7.20;99.90;;;;;;5052131;28;20041;-63
2022/02/06 07:51:26;;;;;;;4.35;2.70;;;7.20;99.90;;;;;;5020825;28;20477;-62
2022/02/06 07:53:52;;;;;;;5.60;2.22;;;7.20;99.90;;;;;;5032248;28;20045;-63
2022/02/06 07:56:17;;;;;;;3.08;2.33;;;7.20;99.90;;;;;;5016696;28;20087;-61
2022/02/06 07:58:43;;;;;;;3.05;2.50;;;7.20;99.90;;;;;;5023970;28;20551;-62
2022/02/06 08:01:09;;;;;;;4.93;2.38;;;7.20;99.90;;;;;;5042306;28;20040;-63
2022/02/06 08:03:34;;;;;;;4.05;2.20;;;7.20;99.90;;;;;;5055582;28;20056;-61
2022/02/06 08:06:03;;;;;;;4.15;2.22;;;7.30;99.90;;;;;;5049444;28;20038;-62
2022/02/06 08:08:28;;;;;;;2.58;2.03;;;7.20;99.90;;;;;;5042794;28;20186;-64
2022/02/06 08:10:59;;;;;;;4.82;2.85;;;7.20;99.90;;;;;;5050120;28;20480;-63
2022/02/06 08:13:40;;;;;;;7.05;2.53;;;7.30;99.90;;;;;;5035948;28;20025;-64
2022/02/06 08:16:06;;;;;;;3.30;2.25;;;7.30;99.90;;;;;;5044326;28;20030;-62
2022/02/06 08:18:36;;;;;;;3.85;2.10;;;7.30;99.90;;;;;;5034056;28;20041;-63
2022/02/06 08:21:03;;;;;;;3.10;2.13;;;7.30;99.90;;;;;;5038985;28;20036;-63
2022/02/06 08:23:29;;;;;;;3.95;3.00;;;7.40;99.90;;;;;;5053010;28;20476;-62
2022/02/06 08:25:56;;;;;;;4.13;2.00;;;7.30;99.90;;;;;;5052110;28;20043;-63
2022/02/06 08:28:22;;;;;;;4.88;2.47;;;7.40;99.90;;;;;;5045225;28;20037;-62
2022/02/06 08:30:48;;;;;;;4.80;2.30;;;7.40;99.90;;;;;;5046199;28;20043;-61
2022/02/06 08:33:16;;;;;;;2.47;2.00;;;7.40;99.90;;;;;;5046643;28;20029;-63
2022/02/06 08:35:42;;;;;;;3.85;2.30;;;7.40;99.90;;;;;;5052916;28;20036;-64
2022/02/06 08:38:12;;;;;;;3.42;2.35;;;7.40;99.90;;;;;;5052241;28;20150;-64
2022/02/06 08:40:38;;;;;;;3.92;2.03;;;7.40;99.90;;;;;;5052890;28;20075;-64
2022/02/06 08:43:04;;;;;;;3.38;2.20;;;7.40;99.90;;;;;;5015131;28;20091;-62
2022/02/06 08:45:30;;;;;;;4.20;2.00;;;7.40;99.90;;;;;;5034088;28;20026;-61
2022/02/06 08:47:57;;;;;;;2.85;2.00;;;7.50;99.90;;;;;;5049315;28;20116;-63
2022/02/06 08:50:23;;;;;;;3.47;2.05;;;7.50;99.90;;;;;;5052998;28;20051;-64
2022/02/06 08:52:49;;;;;;;3.63;2.35;;;7.50;99.90;;;;;;5041315;28;20030;-62
2022/02/06 08:55:16;;;;;;;2.70;2.00;;;7.50;99.90;;;;;;5041918;28;20024;-63
2022/02/06 08:57:51;;;;;;;2.63;2.00;;;7.50;99.90;;;;;;5051806;28;20574;-64
2022/02/06 09:00:26;;;;;;;2.22;2.00;;;7.60;99.90;;;;;;5052768;28;20033;-65
2022/02/06 09:02:55;;;;;;;3.80;1.85;;;7.60;99.90;;;;;;5041389;28;20029;-65
2022/02/06 09:05:23;;;;;;;2.20;1.95;;;7.60;99.90;;;;;;5033054;28;20496;-65
2022/02/06 09:07:48;;;;;;;3.53;1.90;;;7.60;99.90;;;;;;5041253;28;20033;-62
2022/02/06 09:10:15;;;;;;;2.80;1.67;;;7.60;99.90;;;;;;5048066;28;20506;-64
2022/02/06 09:12:48;;;;;;;4.03;1.98;;;7.60;99.90;;;;;;5034065;28;20125;-62
2022/02/06 09:15:16;;;;;;;4.05;2.08;;;7.60;99.90;;;;;;5050972;28;20064;-64
2022/02/06 09:17:43;;;;;;;2.17;1.90;;;7.70;99.90;;;;;;5049137;28;20550;-64
2022/02/06 09:20:09;;;;;;;3.88;2.20;;;7.70;99.90;;;;;;5014809;28;20091;-64
2022/02/06 09:22:36;;;;;;;2.83;2.30;;;7.60;99.90;;;;;;5051353;28;20025;-66
2022/02/06 09:25:02;;;;;;;2.25;1.88;;;7.60;99.90;;;;;;5051846;28;20497;-63
2022/02/06 09:27:27;;;;;;;3.08;1.88;;;7.60;99.90;;;;;;5052226;28;20109;-65
2022/02/06 09:29:53;;;;;;;3.10;2.30;;;7.70;99.90;;;;;;5034154;28;20115;-64
2022/02/06 09:37:10;;;;;;;3.97;2.25;;;7.70;99.90;;;;;;5050005;28;20044;-64
2022/02/06 09:39:40;;;;;;;2.90;1.70;;;7.70;99.90;;;;;;5049503;28;20040;-66
2022/02/06 09:42:13;;;;;;;2.47;1.90;;;7.70;99.90;;;;;;5031166;28;20074;-63
2022/02/06 09:44:43;;;;;;;2.47;1.73;;;7.80;99.90;;;;;;5050956;28;20122;-63
2022/02/06 09:47:10;;;;;;;2.22;1.98;;;7.80;99.90;;;;;;5048554;28;20083;-62
2022/02/06 09:49:36;;;;;;;4.47;2.10;;;7.90;99.90;;;;;;5042447;28;20040;-64
2022/02/06 09:52:01;;;;;;;3.15;2.03;;;7.90;99.90;;;;;;5044488;28;20033;-64
2022/02/06 09:54:29;;;;;;;5.18;2.00;;;7.90;99.90;;;;;;5044510;28;20029;-63
2022/02/06 09:56:58;;;;;;;2.22;1.70;;;8.00;99.90;;;;;;5038083;28;20381;-64
2022/02/06 09:59:35;;;;;;;2.10;1.83;;;8.00;99.90;;;;;;5042042;28;20075;-66
2022/02/06 10:02:01;;;;;;;2.35;2.03;;;8.10;99.90;;;;;;5043274;28;20056;-64
2022/02/06 10:04:30;;;;;;;2.83;2.00;;;8.10;99.90;;;;;;5018274;28;20029;-64
2022/02/06 10:07:01;;;;;;;3.25;2.00;;;8.10;99.90;;;;;;5039729;28;20412;-64
2022/02/06 10:09:46;;;;;;;4.32;1.73;;;8.20;99.90;;;;;;5041105;28;20021;-63
2022/02/06 10:12:13;;;;;;;2.88;1.95;;;8.20;99.90;;;;;;5039602;28;20028;-61
2022/02/06 10:14:40;;;;;;;2.33;1.92;;;8.30;99.90;;;;;;5036812;28;20391;-64
2022/02/06 10:17:06;;;;;;;2.35;1.55;;;8.20;99.90;;;;;;5038064;28;20111;-61
2022/02/06 10:19:32;;;;;;;2.00;1.75;;;8.20;99.90;;;;;;5038693;28;20051;-63
2022/02/06 10:21:59;;;;;;;1.77;1.60;;;8.30;99.90;;;;;;5035119;28;20490;-61
2022/02/06 10:24:32;;;;;;;4.57;2.10;;;8.30;99.90;;;;;;5039409;28;20053;-63
2022/02/06 10:27:21;;;;;;;2.30;1.80;;;8.20;99.90;;;;;;5039361;28;20569;-62
2022/02/06 10:29:57;;;;;;;1.88;1.42;;;8.20;99.90;;;;;;5043198;28;20495;-60
2022/02/06 10:32:22;;;;;;;6.20;1.90;;;8.20;99.90;;;;;;5036829;28;20404;-61
2022/02/06 10:34:48;;;;;;;3.08;1.88;;;8.20;99.90;;;;;;5038148;28;20029;-64
2022/02/06 10:37:23;;;;;;;3.05;1.73;;;8.20;99.90;;;;;;5028149;28;20108;-59
2022/02/06 10:39:50;;;;;;;2.35;1.80;;;8.20;99.90;;;;;;5037128;28;20040;-63
2022/02/06 10:42:21;;;;;;;4.40;2.08;;;8.30;99.90;;;;;;5038964;28;20103;-64
2022/02/06 10:44:49;;;;;;;2.10;1.75;;;8.30;99.90;;;;;;5036945;28;20033;-64
2022/02/06 10:47:17;;;;;;;4.78;2.13;;;8.30;99.90;;;;;;5046076;28;20547;-63
2022/02/06 10:50:05;;;;;;;2.63;1.92;;;8.40;99.90;;;;;;5038889;28;20032;-68
2022/02/06 10:52:33;;;;;;;4.20;1.80;;;8.40;99.90;;;;;;5044417;28;20068;-64
2022/02/06 10:55:00;;;;;;;1.90;1.70;;;8.40;99.90;;;;;;5043895;28;20032;-63
2022/02/06 10:57:28;;;;;;;3.05;1.63;;;8.40;99.90;;;;;;5040470;28;20034;-64
2022/02/06 10:59:54;;;;;;;1.63;1.35;;;8.40;99.90;;;;;;5055013;28;20048;-61
2022/02/06 11:02:24;;;;;;;3.15;1.52;;;8.30;99.90;;;;;;5054051;28;20033;-63
2022/02/06 11:05:12;;;;;;;1.75;1.55;;;8.40;99.90;;;;;;5054071;28;20079;-64
2022/02/06 11:07:38;;;;;;;1.95;1.52;;;8.40;99.90;;;;;;5033295;28;20041;-62
2022/02/06 11:10:13;;;;;;;3.03;2.03;;;8.40;99.90;;;;;;5039920;28;20507;-62
2022/02/06 11:12:47;;;;;;;2.22;1.65;;;8.40;99.90;;;;;;5044182;28;20047;-62
2022/02/06 11:15:26;;;;;;;;;;;8.40;99.90;;;;;;5042754;28;20029;-61
2022/02/06 11:18:18;;;;;;;1.80;1.67;;;8.40;99.90;;;;;;5045622;28;19940;-63
2022/02/06 11:21:20;;;;;;;1.75;1.50;;;8.40;99.90;;;;;;5038014;28;20033;-63
2022/02/06 11:23:51;;;;;;;2.05;1.52;;;8.40;99.90;;;;;;5031069;28;20041;-63
2022/02/06 11:26:25;;;;;;;2.30;1.58;;;8.40;99.90;;;;;;5034486;28;20049;-63
2022/02/06 11:28:53;;;;;;;1.95;1.60;;;8.40;99.90;;;;;;5043966;28;20033;-63
2022/02/06 11:31:19;;;;;;;2.85;1.83;;;8.40;99.90;;;;;;5028680;28;20048;-62
2022/02/06 11:33:45;;;;;;;3.00;1.83;;;8.40;99.90;;;;;;5042481;28;20029;-64
2022/02/06 11:36:23;;;;;;;2.00;1.73;;;8.40;99.90;;;;;;5047065;28;20033;-63
2022/02/06 11:45:16;;;;;;;2.50;1.60;;;8.20;99.90;;;;;;5044735;28;20037;-63
2022/02/06 11:47:57;;;;;;;1.63;1.50;;;8.10;99.90;;;;;;5034330;28;20052;-63
2022/02/06 11:50:24;;;;;;;1.83;1.58;;;8.10;99.90;;;;;;5035717;28;20028;-71
2022/02/06 11:52:51;;;;;;;2.38;2.20;;;8.10;99.90;;;;;;5035561;28;20030;-59
2022/02/06 11:55:50;;;;;;;2.58;1.90;;;8.10;99.90;;;;;;5036617;28;20124;-65
2022/02/06 11:58:34;;;;;;;1.40;1.30;;;8.10;99.90;;;;;;5042852;28;20040;-66
2022/02/06 12:01:05;;;;;;;3.00;1.50;;;8.20;99.90;;;;;;5047227;28;20102;-54
2022/02/06 12:03:56;;;;;;;2.00;1.90;;;8.20;99.90;;;;;;5052472;28;20087;-61
2022/02/06 12:06:29;;;;;;;1.65;1.55;;;8.10;99.90;;;;;;5033719;28;20203;-61
2022/02/06 12:08:58;;;;;;;2.55;1.73;;;8.10;99.90;;;;;;5036541;28;20056;-56
2022/02/06 12:11:24;;;;;;;2.70;1.67;;;8.10;99.90;;;;;;5053798;28;20035;-61
2022/02/06 12:14:07;;;;;;;1.50;1.40;;;8.20;99.90;;;;;;5048451;28;20028;-58
2022/02/06 12:16:41;;;;;;;1.70;1.60;;;8.20;99.90;;;;;;5034571;28;20077;-58
2022/02/06 12:19:29;;;;;;;1.60;1.50;;;8.30;99.90;;;;;;5052515;28;20040;-61
2022/02/06 12:21:58;;;;;;;1.55;1.45;;;8.30;99.90;;;;;;5032478;28;20095;-60
2022/02/06 12:24:53;;;;;;;2.67;1.65;;;8.30;99.90;;;;;;5037045;28;20033;-60
2022/02/06 12:27:24;;;;;;;2.22;1.65;;;8.30;99.90;;;;;;5033456;28;20041;-61
2022/02/06 12:29:57;;;;;;;1.63;1.40;;;8.40;99.90;;;;;;5033709;28;20087;-58
2022/02/06 12:32:35;;;;;;;1.88;1.67;;;8.40;99.90;;;;;;5041271;28;20041;-56
2022/02/06 12:37:55;;;;;;;1.40;1.27;;;8.30;99.90;;;;;;5040573;28;20290;-55
2022/02/06 12:40:24;;;;;;;2.85;1.90;;;8.30;99.90;;;;;;5060295;28;20061;-69
2022/02/06 12:42:58;;;;;;;4.00;1.38;;;8.40;99.90;;;;;;5044246;28;20044;-58
2022/02/06 12:45:24;;;;;;;2.13;1.40;;;8.40;99.90;;;;;;5040677;28;20033;-56
2022/02/06 12:47:54;;;;;;;1.58;1.45;;;8.50;99.90;;;;;;5043928;28;20032;-60
2022/02/06 12:50:27;;;;;;;2.75;1.58;;;8.50;99.90;;;;;;5041961;28;20427;-60
2022/02/06 12:52:54;;;;;;;1.45;1.35;;;8.50;99.90;;;;;;5040162;28;20057;-59
2022/02/06 12:55:23;;;;;;;1.50;1.17;;;8.50;99.90;;;;;;5043029;28;20591;-60
2022/02/06 12:57:51;;;;;;;1.88;1.38;;;8.40;99.90;;;;;;5042273;28;20029;-65
2022/02/06 13:00:44;;;;;;;4.05;1.50;;;8.40;99.90;;;;;;5045110;28;20124;-57
2022/02/06 13:03:36;;;;;;;1.17;1.08;;;8.40;99.90;;;;;;5049028;28;20039;-58
2022/02/06 13:06:06;;;;;;;1.13;1.02;;;8.20;99.90;;;;;;5040679;28;20041;-59
2022/02/06 13:08:37;;;;;;;1.90;1.73;;;8.20;99.90;;;;;;5041002;28;20036;-59
2022/02/06 13:11:08;;;;;;;1.27;1.17;;;8.10;99.90;;;;;;5044787;28;20025;-60
2022/02/06 13:13:50;;;;;;;1.23;1.13;;;8.10;99.90;;;;;;5040879;28;20497;-58
2022/02/06 13:24:17;;;;;;;1.60;1.05;;;7.90;99.90;;;;;;5048071;28;20488;-61
2022/02/06 13:29:23;;;;;;;1.05;1.00;;;7.80;99.90;;;;;;5043903;28;20044;-59
2022/02/06 13:34:42;;;;;;;1.00;1.00;;;7.80;99.90;;;;;;5042860;28;20029;-61
2022/02/06 13:37:20;;;;;;;1.60;0.88;;;7.80;99.90;;;;;;5041969;28;20033;-62
2022/02/06 13:39:52;;;;;;;1.58;1.00;;;7.80;99.90;;;;;;5044940;28;20137;-61
2022/02/06 13:42:21;;;;;;;1.73;0.90;;;7.70;99.90;;;;;;5031556;28;20488;-59
2022/02/06 13:45:01;;;;;;;0.82;0.82;;;7.70;99.90;;;;;;5041092;28;20040;-61
2022/02/06 13:47:27;;;;;;;0.90;0.90;;;7.70;99.90;;;;;;5041185;28;20021;-67
2022/02/06 13:49:53;;;;;;;0.90;0.90;;;7.70;99.90;;;;;;5041503;28;20053;-56
2022/02/06 13:52:19;;;;;;;0.90;0.90;;;7.60;99.90;;;;;;5045606;28;20057;-58
2022/02/06 13:54:49;;;;;;;1.48;1.23;;;7.60;99.90;;;;;;5048482;28;20033;-60
2022/02/06 13:57:15;;;;;;;2.50;0.90;;;7.50;99.90;;;;;;5045256;28;20040;-61
2022/02/06 13:59:45;;;;;;;1.27;1.10;;;7.50;99.90;;;;;;5043473;28;20044;-58
2022/02/06 14:02:11;;;;;;;1.65;0.85;;;7.40;99.90;;;;;;5038312;28;20048;-62
2022/02/06 14:04:40;;;;;;;0.98;0.98;;;7.30;99.90;;;;;;5045463;28;20112;-60
2022/02/06 14:07:14;;;;;;;0.88;0.80;;;7.30;99.90;;;;;;5047797;28;20025;-59
2022/02/06 14:12:17;;;;;;;0.90;0.90;;;7.20;99.90;;;;;;5038187;28;20393;-60
2022/02/06 14:14:51;;;;;;;1.00;0.90;;;7.20;99.90;;;;;;5039846;28;20033;-62
2022/02/06 14:17:20;;;;;;;1.02;0.95;;;7.00;99.90;;;;;;5045725;28;20069;-61
2022/02/06 14:19:47;;;;;;;0.80;0.80;;;7.00;99.90;;;;;;5046375;28;20028;-62
2022/02/06 14:22:28;;;;;;;1.10;1.00;;;7.00;99.90;;;;;;5042958;28;20032;-60
2022/02/06 14:24:58;;;;;;;1.10;0.80;;;6.90;99.90;;;;;;5044983;28;20029;-60
2022/02/06 14:27:39;;;;;;;1.95;0.70;;;6.90;99.90;;;;;;5046351;28;20098;-58
2022/02/06 14:30:21;;;;;;;0.90;0.90;;;6.90;99.90;;;;;;5053448;28;20025;-59
2022/02/06 14:33:13;;;;;;;1.17;1.08;;;6.80;99.90;;;;;;5052773;28;20033;-62
2022/02/06 14:35:41;;;;;;;1.73;0.95;;;6.80;99.90;;;;;;5041172;28;20039;-60
2022/02/06 14:38:11;;;;;;;2.17;1.10;;;6.80;99.90;;;;;;5045489;28;20137;-60
2022/02/06 14:43:12;;;;;;;1.02;1.00;;;6.70;99.90;;;;;;5050442;28;20057;-60
2022/02/06 14:45:49;;;;;;;0.90;0.90;;;6.60;99.90;;;;;;5045299;28;20417;-59
2022/02/06 14:48:16;;;;;;;0.60;0.60;;;6.60;99.90;;;;;;5049096;28;20121;-59
2022/02/06 14:50:49;;;;;;;0.80;0.80;;;6.60;99.90;;;;;;5050690;28;20734;-58
2022/02/06 14:53:16;;;;;;;0.73;0.73;;;6.60;99.90;;;;;;5046548;28;20021;-60
2022/02/06 14:55:44;;;;;;;0.88;0.88;;;6.60;99.90;;;;;;5046621;28;20041;-62
2022/02/06 14:58:10;;;;;;;2.30;1.20;;;6.60;99.90;;;;;;5048492;28;20123;-60
2022/02/06 15:00:39;;;;;;;1.08;1.00;;;6.60;99.90;;;;;;5047206;28;20394;-57
2022/02/06 15:03:09;;;;;;;1.00;1.00;;;6.50;99.90;;;;;;5037362;28;20052;-62
2022/02/06 15:05:36;;;;;;;0.70;0.70;;;6.50;99.90;;;;;;5039137;28;20412;-61
2022/02/06 15:08:06;;;;;;;0.93;0.90;;;6.50;99.90;;;;;;5046419;28;20029;-58
2022/02/06 15:10:35;;;;;;;1.08;1.00;;;6.50;99.90;;;;;;5041618;28;20426;-60
2022/02/06 15:13:02;;;;;;;0.75;0.75;;;6.50;99.90;;;;;;5044399;28;20069;-61
2022/02/06 15:15:34;;;;;;;1.45;1.10;;;6.60;99.90;;;;;;5041103;28;20036;-61
2022/02/06 15:18:09;;;;;;;0.88;0.88;;;6.60;99.90;;;;;;5036844;28;20030;-61
2022/02/06 15:20:35;;;;;;;1.08;1.00;;;6.60;99.90;;;;;;5043104;28;20032;-58
2022/02/06 15:23:04;;;;;;;0.95;0.95;;;6.60;99.90;;;;;;5045664;28;20045;-55
2022/02/06 15:25:30;;;;;;;1.50;0.95;;;6.60;99.90;;;;;;5046050;28;20029;-60
2022/02/06 15:27:59;;;;;;;0.88;0.88;;;6.60;99.90;;;;;;5038587;28;20029;-57
2022/02/06 15:30:26;;;;;;;0.88;0.88;;;6.50;99.90;;;;;;5044219;28;20036;-60
2022/02/06 15:32:52;;;;;;;0.88;0.80;;;6.60;99.90;;;;;;5044559;28;20370;-59
2022/02/06 15:35:17;;;;;;;1.05;1.05;;;6.60;99.90;;;;;;5042851;28;20048;-59
2022/02/06 15:37:43;;;;;;;1.17;1.08;;;6.60;99.90;;;;;;5029707;28;20052;-57
2022/02/06 15:40:15;;;;;;;0.90;0.90;;;6.60;99.90;;;;;;5042249;28;20063;-62
2022/02/06 15:42:40;;;;;;;1.98;0.85;;;6.60;99.90;;;;;;5041812;28;20432;-59